createdAt,value
2023-03-25T00:03:18.364Z,100.00
2023-03-25T00:12:52.176Z,100.00
2023-03-25T00:22:24.171Z,99.42
2023-03-25T00:31:59.772Z,98.55
2023-03-25T00:41:31.926Z,96.87
2023-03-25T00:51:05.655Z,97.18
2023-03-25T01:00:39.255Z,97.12
2023-03-25T01:10:13.319Z,97.24
2023-03-25T01:19:47.620Z,96.64
2023-03-25T01:29:21.785Z,95.58
2023-03-25T01:38:57.753Z,94.51
2023-03-25T01:48:31.591Z,91.48
2023-03-25T01:58:04.984Z,91.17
2023-03-25T02:07:37.196Z,90.85
2023-03-25T02:17:11.103Z,91.14
2023-03-25T02:26:44.704Z,91.03
2023-03-25T02:36:19.893Z,90.63
2023-03-25T02:45:52.449Z,90.26
2023-03-25T02:55:25.888Z,89.86
2023-03-25T03:04:59.947Z,89.33
2023-03-25T03:14:34.198Z,89.44
2023-03-25T03:24:08.135Z,89.14
2023-03-25T03:33:43.207Z,89.44
2023-03-25T03:43:14.318Z,89.61
2023-03-25T03:52:49.656Z,90.01
2023-03-25T04:02:23.421Z,89.92
2023-03-25T04:11:54.907Z,89.71
2023-03-25T04:21:30.625Z,89.60
2023-03-25T04:31:04.968Z,89.15
2023-03-25T04:40:37.409Z,88.72
2023-03-25T04:50:12.635Z,88.91
2023-03-25T04:59:44.892Z,89.90
2023-03-25T05:09:20.452Z,91.15
2023-03-25T05:18:53.632Z,91.47
2023-03-25T05:28:27.936Z,90.78
2023-03-25T05:37:59.936Z,95.68
2023-03-25T05:47:33.310Z,100.00
2023-03-25T05:57:08.406Z,100.00
2023-03-25T06:06:40.080Z,100.00
2023-03-25T06:16:15.756Z,100.00
2023-03-25T06:25:49.972Z,100.00
2023-03-25T06:35:22.519Z,100.00
2023-03-25T06:44:58.170Z,100.00
2023-03-25T06:54:32.459Z,95.97
2023-03-25T07:04:06.483Z,93.89
2023-03-25T07:13:40.702Z,92.66
2023-03-25T07:23:14.744Z,91.09
2023-03-25T07:32:46.709Z,89.37
2023-03-25T07:33:49.164Z,89.51
2023-03-25T07:34:51.611Z,89.02
2023-03-25T07:35:54.301Z,88.96
2023-03-25T07:36:56.470Z,89.15
2023-03-25T07:38:00.522Z,88.07
2023-03-25T07:47:32.161Z,87.08
2023-03-25T07:48:36.231Z,85.19
2023-03-25T07:49:38.519Z,86.08
2023-03-25T07:50:40.928Z,84.62
2023-03-25T07:51:45.014Z,85.12
2023-03-25T07:52:47.301Z,84.63
2023-03-25T08:02:20.264Z,82.68
2023-03-25T08:03:22.656Z,83.38
2023-03-25T08:04:25.193Z,83.15
2023-03-25T08:05:29.142Z,82.53
2023-03-25T08:06:31.507Z,82.56
2023-03-25T08:07:35.564Z,82.46
2023-03-25T08:08:39.491Z,81.43
2023-03-25T08:09:44.318Z,82.39
2023-03-25T08:10:48.225Z,80.65
2023-03-25T08:11:50.495Z,81.25
2023-03-25T08:12:52.862Z,80.80
2023-03-25T08:13:56.954Z,80.26
2023-03-25T08:15:00.823Z,80.89
2023-03-25T08:16:04.758Z,80.57
2023-03-25T08:17:08.742Z,80.51
2023-03-25T08:18:11.048Z,80.76
2023-03-25T08:19:15.066Z,79.33
2023-03-25T08:20:17.349Z,78.41
2023-03-25T08:21:21.483Z,76.76
2023-03-25T08:22:23.705Z,75.92
2023-03-25T08:23:26.167Z,77.19
2023-03-25T08:24:28.560Z,77.25
2023-03-25T08:25:31.050Z,77.67
2023-03-25T08:26:35.068Z,77.07
2023-03-25T08:27:37.408Z,77.06
2023-03-25T08:28:39.761Z,75.29
2023-03-25T08:29:42.212Z,76.21
2023-03-25T08:30:46.248Z,76.18
2023-03-25T08:31:48.642Z,76.70
2023-03-25T08:32:52.635Z,76.52
2023-03-25T08:33:56.428Z,76.58
2023-03-25T08:35:04.304Z,76.65
2023-03-25T08:36:06.464Z,76.23
2023-03-25T08:37:08.880Z,76.32
2023-03-25T08:38:11.287Z,76.73
2023-03-25T08:39:13.715Z,75.41
2023-03-25T08:40:16.128Z,74.33
2023-03-25T08:41:18.664Z,75.30
2023-03-25T08:42:21.036Z,75.52
2023-03-25T08:43:23.413Z,74.83
2023-03-25T08:44:25.862Z,75.29
2023-03-25T08:45:29.902Z,77.10
2023-03-25T08:46:32.165Z,77.57
2023-03-25T08:47:36.320Z,79.37
2023-03-25T08:48:38.582Z,80.34
2023-03-25T08:49:41.066Z,79.92
2023-03-25T08:50:43.439Z,80.47
2023-03-25T08:51:47.440Z,79.79
2023-03-25T08:52:51.417Z,79.74
2023-03-25T08:53:53.685Z,78.82
2023-03-25T08:54:57.798Z,79.81
2023-03-25T08:56:01.810Z,79.96
2023-03-25T09:05:33.099Z,77.06
2023-03-25T09:06:47.416Z,77.09
2023-03-25T09:07:39.296Z,76.20
2023-03-25T09:08:41.771Z,76.15
2023-03-25T09:09:44.232Z,75.91
2023-03-25T09:10:46.645Z,76.49
2023-03-25T09:11:49.128Z,77.83
2023-03-25T09:12:51.572Z,77.29
2023-03-25T09:13:55.582Z,77.67
2023-03-25T09:14:57.901Z,78.24
2023-03-25T09:16:01.921Z,76.07
2023-03-25T09:17:04.151Z,75.43
2023-03-25T09:18:06.620Z,75.45
2023-03-25T09:19:10.643Z,75.52
2023-03-25T09:20:14.566Z,76.06
2023-03-25T09:21:18.516Z,76.05
2023-03-25T09:22:22.511Z,76.25
2023-03-25T09:23:27.607Z,75.90
2023-03-25T09:24:31.284Z,76.71
2023-03-25T09:25:36.162Z,77.45
2023-03-25T09:26:41.293Z,78.18
2023-03-25T09:27:48.512Z,78.34
2023-03-25T09:28:50.585Z,78.94
2023-03-25T09:29:53.259Z,79.67
2023-03-25T09:30:55.559Z,79.95
2023-03-25T09:31:59.458Z,81.26
2023-03-25T09:33:01.771Z,82.16
2023-03-25T09:34:05.682Z,81.55
2023-03-25T09:35:09.524Z,82.02
2023-03-25T09:36:11.814Z,83.11
2023-03-25T09:37:16.880Z,82.96
2023-03-25T09:38:20.664Z,81.77
2023-03-25T09:39:23.024Z,82.82
2023-03-25T09:40:25.478Z,82.43
2023-03-25T09:41:27.900Z,81.21
2023-03-25T09:42:31.991Z,80.81
2023-03-25T09:43:34.308Z,84.13
2023-03-25T09:44:37.837Z,82.04
2023-03-25T09:45:40.270Z,82.53
2023-03-25T09:46:42.836Z,82.47
2023-03-25T09:47:45.217Z,82.71
2023-03-25T09:48:49.165Z,82.12
2023-03-25T09:49:53.195Z,81.99
2023-03-25T09:50:57.044Z,84.13
2023-03-25T09:52:00.926Z,82.62
2023-03-25T10:01:30.183Z,92.42
2023-03-25T10:02:32.632Z,93.61
2023-03-25T10:03:34.955Z,93.78
2023-03-25T10:04:39.003Z,94.61
2023-03-25T10:05:42.837Z,95.22
2023-03-25T10:06:45.094Z,96.90
2023-03-25T10:07:47.690Z,97.17
2023-03-25T10:08:49.960Z,97.32
2023-03-25T10:09:52.450Z,97.10
2023-03-25T10:10:56.443Z,97.83
2023-03-25T10:11:58.818Z,98.29
2023-03-25T10:13:02.359Z,97.82
2023-03-25T10:14:04.951Z,96.60
2023-03-25T10:15:09.987Z,97.25
2023-03-25T10:16:13.761Z,98.01
2023-03-25T10:17:17.053Z,97.35
2023-03-25T10:18:19.359Z,95.42
2023-03-25T10:19:23.387Z,95.23
2023-03-25T10:20:25.672Z,95.08
2023-03-25T10:21:28.094Z,95.82
2023-03-25T10:22:36.179Z,94.84
2023-03-25T10:23:39.930Z,95.40
2023-03-25T10:24:43.828Z,95.87
2023-03-25T10:25:46.108Z,97.20
2023-03-25T10:26:50.210Z,98.22
2023-03-25T10:27:54.160Z,97.58
2023-03-25T10:28:56.427Z,94.78
2023-03-25T10:30:00.475Z,92.98
2023-03-25T10:31:04.387Z,93.03
2023-03-25T10:32:09.289Z,94.81
2023-03-25T10:33:14.158Z,95.10
2023-03-25T10:34:17.368Z,94.45
2023-03-25T10:35:22.317Z,95.51
2023-03-25T10:36:26.144Z,96.12
2023-03-25T10:37:31.060Z,94.00
2023-03-25T10:38:33.328Z,95.56
2023-03-25T10:39:35.761Z,93.43
2023-03-25T10:40:39.748Z,91.70
2023-03-25T10:41:42.085Z,91.25
2023-03-25T10:42:46.100Z,91.45
2023-03-25T10:43:51.452Z,89.92
2023-03-25T10:44:55.419Z,92.71
2023-03-25T10:45:57.879Z,87.23
2023-03-25T10:47:02.265Z,85.88
2023-03-25T10:48:04.096Z,86.53
2023-03-25T10:49:06.426Z,87.01
2023-03-25T10:50:10.447Z,85.83
2023-03-25T10:51:14.308Z,84.46
2023-03-25T10:52:18.264Z,82.74
2023-03-25T10:53:22.138Z,82.11
2023-03-25T10:54:27.347Z,79.83
2023-03-25T10:55:31.139Z,79.40
2023-03-25T10:56:33.481Z,77.95
2023-03-25T10:57:36.053Z,79.12
2023-03-25T10:58:38.461Z,78.05
2023-03-25T10:59:40.883Z,79.50
2023-03-25T11:00:44.934Z,78.91
2023-03-25T11:01:48.243Z,80.80
2023-03-25T11:02:52.414Z,77.97
2023-03-25T11:03:54.531Z,79.66
2023-03-25T11:04:59.546Z,78.71
2023-03-25T11:06:01.763Z,78.59
2023-03-25T11:07:04.197Z,76.88
2023-03-25T11:08:14.922Z,74.98
2023-03-25T11:09:09.983Z,73.55
2023-03-25T11:10:12.320Z,75.35
2023-03-25T11:11:14.750Z,74.38
2023-03-25T11:12:17.244Z,72.57
2023-03-25T11:13:23.279Z,75.50
2023-03-25T11:14:27.214Z,75.71
2023-03-25T11:15:31.124Z,74.02
2023-03-25T11:16:35.254Z,72.90
2023-03-25T11:17:37.871Z,72.32
2023-03-25T11:18:40.912Z,71.20
2023-03-25T11:19:42.703Z,70.25
2023-03-25T11:20:45.185Z,72.01
2023-03-25T11:21:47.565Z,71.39
2023-03-25T11:22:50.026Z,70.68
2023-03-25T11:23:58.134Z,72.63
2023-03-25T11:25:00.255Z,69.64
2023-03-25T11:26:02.638Z,69.63
2023-03-25T11:27:06.131Z,67.67
2023-03-25T11:28:10.053Z,67.72
2023-03-25T11:29:14.195Z,66.83
2023-03-25T11:30:16.411Z,66.36
2023-03-25T11:31:20.549Z,67.76
2023-03-25T11:32:24.482Z,65.96
2023-03-25T11:33:27.832Z,65.95
2023-03-25T11:34:31.793Z,65.06
2023-03-25T11:35:35.076Z,64.50
2023-03-25T11:36:37.357Z,65.97
2023-03-25T11:37:39.824Z,65.44
2023-03-25T11:38:42.237Z,65.27
2023-03-25T11:39:44.671Z,64.21
2023-03-25T11:40:47.030Z,64.07
2023-03-25T11:41:49.490Z,65.82
2023-03-25T11:42:51.985Z,67.63
2023-03-25T11:43:54.522Z,67.73
2023-03-25T11:44:56.917Z,65.92
2023-03-25T11:45:59.424Z,60.87
2023-03-25T11:47:01.814Z,61.37
2023-03-25T11:48:04.307Z,58.51
2023-03-25T11:49:08.304Z,56.72
2023-03-25T11:50:10.701Z,56.97
2023-03-25T11:51:13.076Z,56.04
2023-03-25T11:52:15.512Z,55.76
2023-03-25T11:53:17.905Z,56.17
2023-03-25T11:54:20.494Z,58.52
2023-03-25T11:55:22.902Z,58.04
2023-03-25T11:56:25.233Z,57.86
2023-03-25T11:57:28.843Z,56.70
2023-03-25T11:58:30.139Z,57.07
2023-03-25T11:59:32.568Z,57.87
2023-03-25T12:00:36.700Z,57.46
2023-03-25T12:01:38.999Z,60.39
2023-03-25T12:02:41.560Z,58.27
2023-03-25T12:03:45.582Z,57.05
2023-03-25T12:04:47.923Z,55.41
2023-03-25T12:05:52.076Z,56.41
2023-03-25T12:06:54.272Z,56.28
2023-03-25T12:07:58.302Z,55.11
2023-03-25T12:09:01.601Z,55.58
2023-03-25T12:10:07.596Z,54.64
2023-03-25T12:11:11.464Z,56.46
2023-03-25T12:12:13.860Z,58.03
2023-03-25T12:13:16.263Z,57.22
2023-03-25T12:14:18.772Z,57.69
2023-03-25T12:15:21.271Z,57.80
2023-03-25T12:16:24.661Z,57.77
2023-03-25T12:17:26.986Z,58.55
2023-03-25T12:18:30.966Z,59.29
2023-03-25T12:19:34.965Z,58.95
2023-03-25T12:20:37.329Z,58.92
2023-03-25T12:21:39.784Z,59.96
2023-03-25T12:22:42.235Z,54.86
2023-03-25T12:23:44.965Z,54.72
2023-03-25T12:33:17.693Z,57.14
2023-03-25T12:34:20.072Z,57.40
2023-03-25T12:35:23.564Z,58.33
2023-03-25T12:36:27.662Z,59.20
2023-03-25T12:37:32.974Z,62.97
2023-03-25T12:38:35.185Z,67.74
2023-03-25T12:39:43.038Z,73.25
2023-03-25T12:40:39.948Z,77.18
2023-03-25T12:41:43.942Z,78.62
2023-03-25T12:42:47.211Z,78.80
2023-03-25T12:43:49.543Z,80.55
2023-03-25T12:44:51.974Z,79.87
2023-03-25T12:45:56.986Z,77.92
2023-03-25T12:46:59.118Z,79.83
2023-03-25T12:48:01.692Z,79.61
2023-03-25T12:49:03.995Z,80.16
2023-03-25T12:50:06.514Z,80.26
2023-03-25T12:51:10.296Z,79.59
2023-03-25T12:52:13.749Z,79.55
2023-03-25T12:53:15.980Z,80.89
2023-03-25T12:54:18.434Z,78.72
2023-03-25T12:55:22.492Z,79.47
2023-03-25T12:56:25.257Z,83.29
2023-03-25T12:57:31.787Z,79.09
2023-03-25T12:58:33.845Z,79.27
2023-03-25T12:59:36.304Z,77.11
2023-03-25T13:09:11.548Z,68.44
2023-03-25T13:10:13.935Z,69.97
2023-03-25T13:11:16.347Z,66.81
2023-03-25T13:12:18.753Z,66.63
2023-03-25T13:13:21.222Z,66.97
2023-03-25T13:14:25.467Z,63.73
2023-03-25T13:15:28.110Z,63.33
2023-03-25T13:16:30.253Z,63.84
2023-03-25T13:17:33.758Z,64.50
2023-03-25T13:18:37.101Z,62.63
2023-03-25T13:19:41.149Z,61.87
2023-03-25T13:20:44.997Z,62.15
2023-03-25T13:21:47.394Z,60.52
2023-03-25T13:22:50.886Z,60.74
2023-03-25T13:23:54.861Z,60.32
2023-03-25T13:24:58.707Z,57.98
2023-03-25T13:26:03.633Z,59.47
2023-03-25T13:27:08.571Z,58.03
2023-03-25T13:28:10.783Z,58.07
2023-03-25T13:29:13.304Z,56.19
2023-03-25T13:30:15.692Z,55.53
2023-03-25T13:31:18.275Z,56.27
2023-03-25T13:32:21.683Z,55.84
2023-03-25T13:33:26.591Z,55.13
2023-03-25T13:34:30.440Z,55.87
2023-03-25T13:35:32.769Z,56.86
2023-03-25T13:36:35.207Z,55.29
2023-03-25T13:37:37.731Z,56.09
2023-03-25T13:38:41.325Z,58.12
2023-03-25T13:39:45.283Z,55.18
2023-03-25T13:40:47.594Z,52.45
2023-03-25T13:41:52.587Z,50.00
2023-03-25T13:42:55.893Z,50.24
2023-03-25T13:43:59.334Z,51.04
2023-03-25T13:45:02.000Z,52.43
2023-03-25T13:46:04.512Z,50.36
2023-03-25T13:47:07.539Z,50.50
2023-03-25T13:48:12.023Z,51.08
2023-03-25T13:49:14.178Z,51.32
2023-03-25T13:50:18.164Z,48.68
2023-03-25T13:51:20.425Z,48.17
2023-03-25T13:52:22.857Z,48.46
2023-03-25T13:53:25.439Z,49.19
2023-03-25T13:54:31.637Z,49.52
2023-03-25T13:55:33.933Z,49.99
2023-03-25T13:56:36.419Z,49.86
2023-03-25T13:57:44.751Z,51.05
2023-03-25T13:58:46.846Z,50.72
2023-03-25T13:59:50.872Z,51.23
2023-03-25T14:00:55.089Z,52.03
2023-03-25T14:01:57.255Z,49.69
2023-03-25T14:03:00.795Z,49.40
2023-03-25T14:04:03.257Z,49.11
2023-03-25T14:05:05.941Z,48.42
2023-03-25T14:06:08.357Z,48.43
2023-03-25T14:07:11.861Z,49.40
2023-03-25T14:08:14.212Z,46.87
2023-03-25T14:09:18.343Z,45.91
2023-03-25T14:10:22.259Z,46.67
2023-03-25T14:11:24.635Z,47.06
2023-03-25T14:12:27.240Z,45.91
2023-03-25T14:13:32.322Z,47.10
2023-03-25T14:14:34.541Z,47.29
2023-03-25T14:15:38.694Z,46.83
2023-03-25T14:16:42.604Z,47.74
2023-03-25T14:17:46.636Z,46.96
2023-03-25T14:18:49.231Z,46.56
2023-03-25T14:19:51.642Z,46.85
2023-03-25T14:20:54.901Z,45.97
2023-03-25T14:21:56.616Z,46.10
2023-03-25T14:23:00.924Z,46.14
2023-03-25T14:24:03.378Z,46.69
2023-03-25T14:25:05.830Z,47.70
2023-03-25T14:26:08.544Z,47.38
2023-03-25T14:27:12.829Z,47.08
2023-03-25T14:28:15.114Z,47.83
2023-03-25T14:29:19.182Z,48.04
2023-03-25T14:30:25.017Z,48.07
2023-03-25T14:31:27.140Z,49.00
2023-03-25T14:32:31.099Z,46.82
2023-03-25T14:33:33.459Z,47.24
2023-03-25T14:34:35.902Z,46.72
2023-03-25T14:35:38.445Z,46.94
2023-03-25T14:36:42.474Z,47.48
2023-03-25T14:37:44.698Z,46.85
2023-03-25T14:38:47.498Z,47.00
2023-03-25T14:39:50.072Z,46.72
2023-03-25T14:49:22.090Z,49.44
2023-03-25T14:50:24.433Z,47.03
2023-03-25T14:51:27.152Z,48.10
2023-03-25T14:52:29.573Z,47.46
2023-03-25T14:53:32.063Z,47.78
2023-03-25T14:54:35.644Z,47.82
2023-03-25T14:55:39.851Z,48.51
2023-03-25T14:56:43.773Z,48.14
2023-03-25T14:57:46.259Z,48.96
2023-03-25T14:58:48.725Z,49.10
2023-03-25T14:59:51.139Z,49.99
2023-03-25T15:00:53.655Z,49.35
2023-03-25T15:01:56.122Z,49.21
2023-03-25T15:03:00.279Z,49.84
2023-03-25T15:04:05.178Z,49.16
2023-03-25T15:05:09.007Z,49.31
2023-03-25T15:06:11.265Z,48.98
2023-03-25T15:07:13.848Z,50.11
2023-03-25T15:08:16.182Z,48.12
2023-03-25T15:09:18.720Z,47.78
2023-03-25T15:10:21.277Z,48.36
2023-03-25T15:11:23.672Z,48.33
2023-03-25T15:12:26.200Z,48.48
2023-03-25T15:13:30.379Z,48.12
2023-03-25T15:14:32.520Z,48.98
2023-03-25T15:15:35.000Z,48.21
2023-03-25T15:16:39.359Z,47.43
2023-03-25T15:17:41.687Z,47.42
2023-03-25T15:18:44.053Z,47.55
2023-03-25T15:19:48.123Z,48.42
2023-03-25T15:20:50.600Z,47.52
2023-03-25T15:21:54.562Z,47.88
2023-03-25T15:22:58.496Z,47.38
2023-03-25T15:24:00.808Z,47.42
2023-03-25T15:25:03.263Z,46.39
2023-03-25T15:26:05.751Z,45.25
2023-03-25T15:27:08.247Z,45.39
2023-03-25T15:28:10.724Z,44.88
2023-03-25T15:29:13.216Z,44.49
2023-03-25T15:30:15.678Z,45.64
2023-03-25T15:31:18.176Z,44.63
2023-03-25T15:32:20.659Z,44.38
2023-03-25T15:33:24.709Z,45.40
2023-03-25T15:34:28.563Z,45.98
2023-03-25T15:35:31.207Z,45.73
2023-03-25T15:36:33.522Z,46.16
2023-03-25T15:37:45.423Z,46.52
2023-03-25T15:38:41.513Z,46.26
2023-03-25T15:39:43.826Z,47.08
2023-03-25T15:40:46.269Z,47.12
2023-03-25T15:41:48.712Z,46.65
2023-03-25T15:42:52.745Z,47.04
2023-03-25T15:44:00.371Z,47.34
2023-03-25T15:44:59.225Z,48.19
2023-03-25T15:46:03.379Z,48.53
2023-03-25T15:47:05.448Z,48.82
2023-03-25T15:48:07.937Z,48.94
2023-03-25T15:49:10.585Z,49.65
2023-03-25T15:50:13.394Z,49.77
2023-03-25T15:51:17.864Z,49.75
2023-03-25T15:52:20.901Z,50.06
2023-03-25T15:53:25.860Z,50.15
2023-03-25T15:54:25.091Z,49.36
2023-03-25T15:55:27.714Z,49.37
2023-03-25T15:56:30.718Z,48.47
2023-03-25T15:57:32.889Z,48.50
2023-03-25T15:58:35.422Z,48.44
2023-03-25T15:59:39.805Z,47.67
2023-03-25T16:00:44.003Z,47.66
2023-03-25T16:01:47.749Z,46.97
2023-03-25T16:02:50.519Z,46.54
2023-03-25T16:03:53.432Z,46.42
2023-03-25T16:04:55.778Z,46.09
2023-03-25T16:05:59.705Z,45.19
2023-03-25T16:07:02.043Z,45.69
2023-03-25T16:08:04.512Z,45.26
2023-03-25T16:09:06.891Z,45.82
2023-03-25T16:10:10.925Z,44.94
2023-03-25T16:11:13.261Z,45.28
2023-03-25T16:12:17.343Z,44.95
2023-03-25T16:13:20.143Z,45.50
2023-03-25T16:14:22.449Z,46.19
2023-03-25T16:15:25.126Z,46.68
2023-03-25T16:16:27.712Z,47.25
2023-03-25T16:17:31.577Z,47.18
2023-03-25T16:18:34.068Z,48.29
2023-03-25T16:19:36.338Z,48.87
2023-03-25T16:20:40.314Z,49.48
2023-03-25T16:21:44.230Z,50.14
2023-03-25T16:22:48.192Z,50.02
2023-03-25T16:23:50.405Z,50.33
2023-03-25T16:24:52.911Z,50.63
2023-03-25T16:25:57.024Z,49.17
2023-03-25T16:26:59.377Z,49.05
2023-03-25T16:28:01.884Z,49.46
2023-03-25T16:29:04.358Z,47.90
2023-03-25T16:30:06.878Z,47.27
2023-03-25T16:31:10.931Z,48.00
2023-03-25T16:32:13.213Z,49.15
2023-03-25T16:33:15.753Z,48.64
2023-03-25T16:34:19.788Z,48.99
2023-03-25T16:35:22.082Z,48.48
2023-03-25T16:36:26.096Z,49.50
2023-03-25T16:37:28.432Z,49.20
2023-03-25T16:38:31.053Z,49.03
2023-03-25T16:39:35.138Z,49.27
2023-03-25T16:40:37.452Z,49.23
2023-03-25T16:41:41.433Z,50.28
2023-03-25T16:42:43.736Z,50.53
2023-03-25T16:43:46.143Z,50.25
2023-03-25T16:44:48.565Z,50.56
2023-03-25T16:45:50.938Z,50.43
2023-03-25T16:46:53.419Z,50.45
2023-03-25T16:47:57.483Z,51.59
2023-03-25T16:48:59.715Z,50.92
2023-03-25T16:50:02.167Z,50.85
2023-03-25T16:51:04.561Z,50.62
2023-03-25T16:52:08.639Z,50.72
2023-03-25T16:53:11.040Z,51.44
2023-03-25T16:54:15.328Z,51.56
2023-03-25T16:55:17.568Z,51.62
2023-03-25T16:56:20.011Z,51.95
2023-03-25T16:57:22.425Z,52.18
2023-03-25T16:58:24.951Z,52.30
2023-03-25T16:59:29.394Z,52.54
2023-03-25T17:00:31.609Z,53.20
2023-03-25T17:01:34.001Z,52.82
2023-03-25T17:02:36.482Z,52.80
2023-03-25T17:03:40.549Z,53.04
2023-03-25T17:04:44.399Z,53.52
2023-03-25T17:05:46.683Z,53.30
2023-03-25T17:06:50.712Z,53.47
2023-03-25T17:07:53.061Z,53.22
2023-03-25T17:08:55.485Z,53.62
2023-03-25T17:09:57.888Z,55.22
2023-03-25T17:11:00.333Z,54.04
2023-03-25T17:12:02.740Z,54.24
2023-03-25T17:13:05.202Z,54.03
2023-03-25T17:14:07.692Z,54.65
2023-03-25T17:15:10.169Z,53.62
2023-03-25T17:16:14.584Z,54.06
2023-03-25T17:17:16.907Z,53.28
2023-03-25T17:18:19.377Z,53.19
2023-03-25T17:19:23.597Z,53.46
2023-03-25T17:20:25.781Z,53.40
2023-03-25T17:21:28.244Z,53.66
2023-03-25T17:22:30.650Z,54.15
2023-03-25T17:23:34.730Z,54.60
2023-03-25T17:24:38.642Z,54.25
2023-03-25T17:25:40.980Z,54.86
2023-03-25T17:26:45.032Z,56.28
2023-03-25T17:27:49.256Z,57.23
2023-03-25T17:28:51.425Z,57.99
2023-03-25T17:29:53.892Z,59.45
2023-03-25T17:30:56.367Z,60.37
2023-03-25T17:32:00.292Z,61.32
2023-03-25T17:33:02.653Z,62.54
2023-03-25T17:34:06.671Z,63.71
2023-03-25T17:35:08.942Z,64.28
2023-03-25T17:36:11.420Z,65.29
2023-03-25T17:37:13.773Z,66.00
2023-03-25T17:38:16.316Z,66.81
2023-03-25T17:39:20.269Z,67.47
2023-03-25T17:40:24.154Z,67.87
2023-03-25T17:41:28.061Z,68.46
2023-03-25T17:42:30.439Z,69.02
2023-03-25T17:43:32.841Z,69.50
2023-03-25T17:44:35.674Z,69.93
2023-03-25T17:45:37.864Z,70.26
2023-03-25T17:46:40.468Z,70.25
2023-03-25T17:56:10.978Z,72.79
2023-03-25T17:57:16.127Z,72.19
2023-03-25T18:06:47.458Z,71.34
2023-03-25T18:16:20.671Z,73.25
2023-03-25T18:17:24.907Z,73.27
2023-03-25T18:26:56.448Z,75.39
2023-03-25T18:36:27.232Z,76.76
2023-03-25T18:46:00.869Z,78.73
2023-03-25T18:55:34.644Z,80.93
2023-03-25T19:05:08.351Z,82.09
2023-03-25T19:14:43.631Z,82.57
2023-03-25T19:24:15.838Z,82.67
2023-03-25T19:33:49.400Z,83.45
2023-03-25T19:43:23.403Z,84.32
2023-03-25T19:52:56.975Z,84.95
2023-03-25T20:02:30.845Z,85.45
2023-03-25T20:12:04.158Z,87.09
2023-03-25T20:21:38.064Z,89.30
2023-03-25T20:31:11.637Z,91.03
2023-03-25T20:40:47.008Z,92.18
2023-03-25T20:50:20.630Z,92.29
2023-03-25T20:59:52.730Z,92.67
2023-03-25T21:09:28.277Z,92.14
2023-03-25T21:19:00.348Z,91.38
2023-03-25T21:28:34.203Z,92.58
2023-03-25T21:38:08.049Z,92.79
2023-03-25T21:47:41.709Z,92.71
2023-03-25T21:57:17.201Z,92.61
2023-03-25T22:06:49.079Z,92.34
2023-03-25T22:16:23.097Z,92.21
2023-03-25T22:25:58.105Z,91.96
2023-03-25T22:35:30.454Z,90.57
2023-03-25T22:45:06.175Z,90.86
2023-03-25T22:54:38.662Z,90.17
2023-03-25T23:04:14.178Z,89.86
2023-03-25T23:13:46.322Z,90.24
2023-03-25T23:23:20.031Z,90.67
2023-03-25T23:32:55.242Z,90.70
2023-03-25T23:42:35.098Z,91.31
2023-03-25T23:52:00.295Z,92.21
